Time;durP1;ratioP1;P1;durP2;ratioP2;P2;SDS_P1;SDS_P2;PMS_P1;PMS_P2;Temp;Humidity;BMP_temperature;BMP_pressure;BME280_temperature;BME280_humidity;BME280_pressure;Samples;Min_cycle;Max_cycle;Signal;HPM_P1;HPM_P2
2021/04/02 00:08:41;;;;;;;1.87;1.77;;;;;;;4.24;72.76;99429.10;471753;1168;113572;-66
2021/04/02 00:18:45;;;;;;;1.63;1.53;;;;;;;3.94;73.61;99426.84;472180;1170;113724;-66
2021/04/02 00:28:51;;;;;;;1.75;1.65;;;;;;;3.75;72.21;99424.08;471909;1169;113707;-66
2021/04/02 00:38:54;;;;;;;3.60;2.03;;;;;;;3.62;72.65;99437.54;471490;1169;113681;-66
2021/04/02 00:48:58;;;;;;;2.80;2.60;;;;;;;3.49;72.74;99429.39;471118;1171;113786;-66
2021/04/02 00:59:02;;;;;;;4.10;2.60;;;;;;;3.46;72.77;99426.91;471523;1171;114071;-66
2021/04/02 01:09:05;;;;;;;2.90;2.50;;;;;;;3.53;73.14;99426.67;471813;1170;113652;-66
2021/04/02 01:19:16;;;;;;;3.13;2.80;;;;;;;3.53;73.17;99437.91;471199;1169;114874;-65
2021/04/02 01:29:23;;;;;;;2.00;1.83;;;;;;;3.47;72.23;99451.97;471257;1168;114321;-66
2021/04/02 01:39:26;;;;;;;;;;;;;;;3.33;72.35;99461.98;471594;1169;114107;-66
2021/04/02 01:49:32;;;;;;;1.20;1.07;;;;;;;3.24;71.91;99470.95;471525;1168;101254;-65
2021/04/02 01:59:37;;;;;;;1.85;1.30;;;;;;;3.16;72.10;99481.61;471542;1169;114973;-65
2021/04/02 02:09:43;;;;;;;2.07;1.50;;;;;;;3.16;71.79;99504.97;471591;1169;113704;-65
2021/04/02 02:19:49;;;;;;;1.43;1.30;;;;;;;3.11;71.54;99524.19;471207;1169;113763;-65
2021/04/02 02:29:53;;;;;;;1.47;1.37;;;;;;;3.08;71.49;99531.18;471396;1169;114211;-65
2021/04/02 02:39:56;;;;;;;1.23;1.20;;;;;;;2.98;71.74;99528.94;471128;1168;113863;-65
2021/04/02 02:50:02;;;;;;;1.10;1.00;;;;;;;2.85;71.51;99544.91;471626;1169;113801;-65
2021/04/02 03:00:11;;;;;;;0.90;0.90;;;;;;;2.64;70.89;99536.92;471776;1169;114095;-67
2021/04/02 03:10:15;;;;;;;1.70;1.60;;;;;;;2.51;71.47;99556.36;471697;1170;114697;-66
2021/04/02 03:20:22;;;;;;;2.30;1.67;;;;;;;2.31;71.57;99552.66;471961;1170;113810;-63
2021/04/02 03:30:27;;;;;;;2.97;1.90;;;;;;;2.10;72.34;99569.69;471399;1170;116722;-65
2021/04/02 03:40:32;;;;;;;2.30;2.10;;;;;;;1.91;72.08;99575.42;471070;1170;113633;-65
2021/04/02 03:50:39;;;;;;;3.70;2.70;;;;;;;1.82;72.55;99583.44;471370;1170;114039;-66
2021/04/02 04:00:46;;;;;;;3.80;2.60;;;;;;;1.71;72.75;99554.41;471453;1169;114208;-64
2021/04/02 04:10:52;;;;;;;3.47;3.00;;;;;;;1.64;73.10;99538.20;471103;1169;114034;-65
2021/04/02 04:20:58;;;;;;;3.73;2.77;;;;;;;1.60;72.91;99565.05;471765;1169;114611;-65
2021/04/02 04:31:06;;;;;;;2.70;2.50;;;;;;;1.54;73.06;99566.06;471764;1170;113637;-65
2021/04/02 04:41:11;;;;;;;3.93;2.90;;;;;;;1.56;72.36;99576.39;471594;1169;113836;-65
2021/04/02 04:51:17;;;;;;;2.93;2.53;;;;;;;1.63;72.10;99586.53;471649;1169;113871;-66
2021/04/02 05:01:22;;;;;;;3.23;2.93;;;;;;;1.76;72.71;99593.95;471089;1171;114073;-65
2021/04/02 05:11:28;;;;;;;4.57;2.87;;;;;;;2.04;72.69;99601.80;471503;1170;114423;-65
2021/04/02 05:21:32;;;;;;;4.37;3.60;;;;;;;2.03;71.56;99610.46;471286;1169;114047;-65
2021/04/02 05:31:36;;;;;;;3.93;3.00;;;;;;;2.20;71.70;99629.88;471164;1170;114411;-65
2021/04/02 05:41:54;;;;;;;6.27;3.47;;;;;;;2.05;71.30;99636.33;471251;1170;115446;-65
2021/04/02 05:51:59;;;;;;;4.53;4.13;;;;;;;2.68;71.21;99625.84;471675;1169;113988;-66
2021/04/02 06:02:04;;;;;;;3.40;3.07;;;;;;;3.00;70.39;99626.57;471238;1168;114043;-66
2021/04/02 06:12:10;;;;;;;5.03;3.33;;;;;;;3.29;70.16;99629.97;471643;1171;113981;-65
2021/04/02 06:22:15;;;;;;;4.13;3.33;;;;;;;3.34;69.68;99632.39;471067;1169;114398;-66
2021/04/02 06:32:34;;;;;;;5.27;3.70;;;;;;;3.62;69.34;99631.46;471486;1169;117572;-64
2021/04/02 06:42:38;;;;;;;4.37;3.63;;;;;;;3.96;68.59;99645.00;471448;1171;113955;-66
2021/04/02 06:52:42;;;;;;;6.37;4.80;;;;;;;4.21;67.71;99647.56;471176;1169;113645;-66
2021/04/02 07:02:49;;;;;;;6.40;5.33;;;;;;;4.41;67.46;99657.21;471455;1169;114013;-64
2021/04/02 07:12:54;;;;;;;13.47;9.60;;;;;;;4.43;66.55;99660.59;471648;1170;114170;-73
2021/04/02 07:22:59;;;;;;;17.33;14.30;;;;;;;4.63;66.32;99653.80;471617;1169;114213;-71
2021/04/02 07:33:05;;;;;;;16.50;14.40;;;;;;;6.40;64.58;99658.66;471316;1169;115418;-70
2021/04/02 07:43:09;;;;;;;25.33;15.33;;;;;;;6.77;63.07;99669.16;471270;1170;114390;-71
2021/04/02 07:53:17;;;;;;;15.90;12.70;;;;;;;6.39;62.49;99667.41;471951;1171;114409;-67
2021/04/02 08:03:23;;;;;;;14.98;12.15;;;;;;;7.43;62.10;99675.55;472137;1169;114123;-69
2021/04/02 08:13:27;;;;;;;13.90;12.45;;;;;;;8.44;59.74;99662.56;471355;1168;114168;-66
2021/04/02 08:23:31;;;;;;;12.25;11.20;;;;;;;7.93;59.33;99673.08;471356;1170;114554;-69
2021/04/02 08:33:35;;;;;;;16.95;11.85;;;;;;;7.98;59.25;99668.45;471842;1170;114183;-71
2021/04/02 08:43:41;;;;;;;14.87;13.03;;;;;;;8.67;57.13;99650.84;471368;1170;114207;-72
2021/04/02 08:53:45;;;;;;;11.95;11.00;;;;;;;10.73;55.13;99650.14;471530;1171;114007;-69
2021/04/02 09:03:49;;;;;;;9.33;8.53;;;;;;;10.77;52.55;99640.30;471538;1168;114549;-70
2021/04/02 09:13:53;;;;;;;7.67;7.03;;;;;;;10.36;52.64;99645.42;471508;1169;114387;-70
2021/04/02 09:23:58;;;;;;;7.33;6.70;;;;;;;10.59;51.85;99634.44;471179;1169;115174;-70
2021/04/02 09:34:05;;;;;;;6.70;6.10;;;;;;;10.91;50.65;99639.41;471391;1170;114907;-68
2021/04/02 09:44:12;;;;;;;6.10;5.50;;;;;;;9.97;50.33;99620.69;471534;1169;114030;-67
2021/04/02 09:54:17;;;;;;;4.73;4.17;;;;;;;9.43;50.18;99608.19;470987;1169;114123;-66
2021/04/02 10:04:21;;;;;;;6.70;5.60;;;;;;;9.18;51.13;99596.53;482282;1169;114065;-68
2021/04/02 10:14:26;;;;;;;5.67;4.10;;;;;;;8.52;51.80;99589.72;471420;1169;114281;-67
2021/04/02 10:24:29;;;;;;;4.40;3.97;;;;;;;8.58;51.87;99578.06;471692;1168;114078;-67
2021/04/02 10:34:33;;;;;;;4.05;3.75;;;;;;;8.03;52.37;99574.06;471501;1168;114829;-66
2021/04/02 10:44:36;;;;;;;3.87;2.70;;;;;;;8.05;50.63;99562.61;471296;1171;113940;-66
2021/04/02 10:54:40;;;;;;;3.00;2.70;;;;;;;7.69;51.12;99537.52;471343;1170;114339;-69
2021/04/02 11:04:44;;;;;;;4.20;3.80;;;;;;;7.88;51.73;99539.13;471315;1170;114006;-67
2021/04/02 11:14:48;;;;;;;8.87;3.37;;;;;;;8.01;51.62;99539.31;471791;1169;114385;-66
2021/04/02 11:24:52;;;;;;;3.70;2.23;;;;;;;8.10;50.61;99531.80;471378;1169;113487;-67
2021/04/02 11:34:56;;;;;;;3.17;2.50;;;;;;;8.07;49.86;99512.81;471419;1170;114083;-67
2021/04/02 11:45:01;;;;;;;2.60;2.40;;;;;;;7.96;49.57;99509.05;471831;1169;113665;-67
2021/04/02 11:55:07;;;;;;;4.27;3.43;;;;;;;7.97;50.75;99497.66;471178;1169;113738;-69
2021/04/02 12:05:17;;;;;;;2.90;2.47;;;;;;;7.96;49.33;99482.90;471843;1169;113633;-71
2021/04/02 12:15:21;;;;;;;3.15;2.85;;;;;;;7.95;49.50;99475.95;473797;1169;114166;-69
2021/04/02 12:25:25;;;;;;;4.47;2.90;;;;;;;8.15;48.81;99467.95;471818;1169;114127;-65
2021/04/02 12:35:29;;;;;;;4.47;2.90;;;;;;;8.07;47.63;99455.28;471647;1169;113636;-64
2021/04/02 12:45:34;;;;;;;3.03;2.73;;;;;;;8.10;47.38;99435.04;471764;1170;115357;-65
2021/04/02 12:55:41;;;;;;;2.90;2.70;;;;;;;8.06;47.71;99428.31;471854;1170;115002;-69
2021/04/02 13:05:45;;;;;;;2.95;2.10;;;;;;;8.30;45.98;99420.00;471796;1168;114368;-64
2021/04/02 13:15:49;;;;;;;2.40;2.20;;;;;;;8.29;47.13;99400.00;471429;1170;115388;-66
2021/04/02 13:25:53;;;;;;;2.40;2.20;;;;;;;8.34;46.75;99400.56;471615;1169;114980;-67
2021/04/02 13:35:58;;;;;;;2.83;2.07;;;;;;;8.37;46.34;99391.70;471528;1168;115226;-63
2021/04/02 13:46:01;;;;;;;2.73;2.53;;;;;;;8.41;46.27;99374.88;472103;1169;115400;-65
2021/04/02 13:56:07;;;;;;;3.10;2.80;;;;;;;8.40;45.93;99371.44;471918;1169;115177;-68
2021/04/02 14:06:12;;;;;;;3.27;3.07;;;;;;;8.40;44.96;99366.20;472123;1169;113744;-70
2021/04/02 14:16:16;;;;;;;4.30;3.03;;;;;;;8.44;45.91;99342.47;473081;1170;114148;-65
2021/04/02 14:26:20;;;;;;;4.80;4.23;;;;;;;8.60;45.93;99317.12;471194;1171;114404;-72
2021/04/02 14:36:24;;;;;;;4.85;4.35;;;;;;;8.76;45.90;99309.14;471199;1168;113994;-71
2021/04/02 14:46:27;;;;;;;6.43;4.83;;;;;;;8.88;45.58;99310.19;471147;1170;114426;-71
2021/04/02 14:56:31;;;;;;;6.93;5.58;;;;;;;8.99;45.40;99299.03;471444;1168;113857;-73
2021/04/02 15:06:37;;;;;;;6.30;5.60;;;;;;;9.07;45.47;99295.96;471821;1169;114205;-71
2021/04/02 15:16:40;;;;;;;7.20;4.85;;;;;;;8.94;44.64;99291.46;471806;1168;115084;-71
2021/04/02 15:26:44;;;;;;;5.50;4.73;;;;;;;8.86;44.16;99291.12;472263;1170;114866;-72
2021/04/02 15:36:48;;;;;;;10.87;5.10;;;;;;;8.75;43.04;99297.00;472070;1170;113717;-71
2021/04/02 15:46:52;;;;;;;4.87;4.27;;;;;;;8.61;42.49;99299.63;472430;1170;114434;-72
2021/04/02 15:56:56;;;;;;;6.33;3.70;;;;;;;8.37;40.85;99285.30;471903;1170;113984;-72
2021/04/02 16:07:00;;;;;;;6.60;5.25;;;;;;;8.10;40.51;99291.20;472903;1169;113874;-70
2021/04/02 16:17:05;;;;;;;4.87;4.37;;;;;;;7.79;41.36;99279.94;471240;1169;114149;-71
2021/04/02 16:27:09;;;;;;;5.50;4.60;;;;;;;7.65;42.10;99275.49;471606;1168;114608;-70
2021/04/02 16:37:13;;;;;;;5.23;4.33;;;;;;;7.45;42.08;99267.94;471755;1169;113875;-70
2021/04/02 16:47:18;;;;;;;7.50;3.90;;;;;;;7.22;42.50;99267.45;472758;1170;113928;-70
2021/04/02 16:57:23;;;;;;;6.00;3.87;;;;;;;7.00;42.49;99255.57;471996;1169;113946;-71
2021/04/02 17:07:26;;;;;;;4.83;4.33;;;;;;;6.70;43.76;99254.54;471290;1169;113977;-63
2021/04/02 17:17:30;;;;;;;6.43;4.87;;;;;;;6.47;44.14;99260.13;471148;1170;114298;-62
2021/04/02 17:27:34;;;;;;;6.70;4.97;;;;;;;6.35;44.86;99266.81;471056;1169;114060;-62
2021/04/02 17:37:38;;;;;;;10.93;6.27;;;;;;;6.31;45.08;99266.98;475796;1170;114021;-63
2021/04/02 17:47:42;;;;;;;12.57;7.17;;;;;;;6.24;45.19;99265.63;470676;1169;114363;-63
2021/04/02 17:57:46;;;;;;;22.20;10.07;;;;;;;6.11;46.01;99267.16;471067;1168;113796;-64
2021/04/02 18:07:53;;;;;;;74.27;32.53;;;;;;;6.01;47.32;99272.86;471565;1167;114475;-64
2021/04/02 18:17:57;;;;;;;62.95;26.68;;;;;;;5.97;47.43;99273.05;471798;1170;114069;-63
2021/04/02 18:28:01;;;;;;;132.05;67.25;;;;;;;5.79;48.18;99267.00;471346;1170;114580;-63
2021/04/02 18:38:05;;;;;;;58.43;28.97;;;;;;;5.49;48.98;99262.36;471358;1169;114247;-64
2021/04/02 18:48:10;;;;;;;82.67;32.20;;;;;;;5.10;49.36;99249.41;471347;1168;113969;-63
2021/04/02 18:58:14;;;;;;;58.10;24.63;;;;;;;4.87;49.36;99238.31;471466;1170;113990;-64
2021/04/02 19:08:17;;;;;;;24.75;16.30;;;;;;;4.74;51.27;99230.22;471254;1170;113975;-64
2021/04/02 19:18:21;;;;;;;18.00;12.63;;;;;;;4.46;52.45;99218.48;471313;1169;114755;-64
2021/04/02 19:28:25;;;;;;;18.73;11.10;;;;;;;4.20;53.18;99220.45;471507;1169;114057;-66
2021/04/02 19:38:30;;;;;;;21.40;13.13;;;;;;;4.09;54.42;99219.25;470964;1169;115633;-64
2021/04/02 19:48:35;;;;;;;26.17;16.83;;;;;;;4.10;55.04;99206.20;473067;1170;115783;-66
2021/04/02 19:58:38;;;;;;;40.13;26.17;;;;;;;4.12;54.15;99208.72;471510;1169;114246;-63
2021/04/02 20:08:42;;;;;;;68.87;36.60;;;;;;;4.06;55.09;99209.83;471613;1170;114650;-63
2021/04/02 20:18:46;;;;;;;42.60;26.47;;;;;;;4.03;55.55;99202.17;470946;1169;114298;-64
2021/04/02 20:28:50;;;;;;;49.57;28.30;;;;;;;4.04;56.06;99209.05;471339;1169;114017;-65
2021/04/02 20:38:53;;;;;;;65.77;37.70;;;;;;;4.03;55.78;99200.41;471359;1169;114209;-64
2021/04/02 20:48:57;;;;;;;57.77;35.87;;;;;;;3.97;55.62;99203.28;471207;1170;114327;-63
2021/04/02 20:59:01;;;;;;;60.10;36.43;;;;;;;4.01;55.71;99194.44;471305;1170;114366;-63
2021/04/02 21:09:05;;;;;;;73.20;43.43;;;;;;;4.05;56.35;99190.81;471628;1169;114105;-64
2021/04/02 21:19:08;;;;;;;84.27;45.90;;;;;;;3.98;56.65;99183.33;471574;1170;114139;-64
2021/04/02 21:29:13;;;;;;;76.75;47.20;;;;;;;3.86;58.22;99163.94;471760;1170;113993;-63
2021/04/02 21:39:16;;;;;;;57.85;35.25;;;;;;;3.82;57.59;99162.39;471975;1169;114011;-64
2021/04/02 21:49:20;;;;;;;50.80;29.85;;;;;;;3.77;57.35;99171.20;471619;1168;114540;-64
2021/04/02 21:59:24;;;;;;;45.30;26.70;;;;;;;3.83;57.24;99166.67;471414;1169;114289;-64
2021/04/02 22:09:28;;;;;;;40.87;24.87;;;;;;;3.87;57.02;99163.88;471406;1168;114165;-70
2021/04/02 22:19:32;;;;;;;40.40;23.77;;;;;;;3.90;57.01;99149.89;471195;1170;114487;-71
2021/04/02 22:29:53;;;;;;;44.27;25.13;;;;;;;3.95;56.90;99136.70;471813;1170;114006;-72
2021/04/02 22:39:57;;;;;;;37.97;22.50;;;;;;;3.86;57.39;99138.79;471815;1171;114509;-72
2021/04/02 22:50:01;;;;;;;40.87;25.30;;;;;;;3.66;58.01;99144.84;471525;1171;114377;-70
2021/04/02 23:00:09;;;;;;;44.07;23.17;;;;;;;3.35;58.71;99139.20;471102;1169;114967;-70
2021/04/02 23:10:15;;;;;;;30.70;18.90;;;;;;;3.15;59.53;99133.98;471348;1169;113958;-70
2021/04/02 23:20:20;;;;;;;32.07;20.00;;;;;;;3.10;59.45;99141.13;455599;1169;10172622;-70
2021/04/02 23:30:30;;;;;;;30.70;19.25;;;;;;;2.83;60.20;99141.30;471475;1170;114334;-72
2021/04/02 23:40:37;;;;;;;39.90;20.20;;;;;;;2.63;60.45;99141.17;471382;1169;114002;-70
2021/04/02 23:50:43;;;;;;;35.40;20.33;;;;;;;2.61;61.23;99130.03;471438;1169;114006;-72
